»·PEaware :: UPS1014 KABQ-KONT

UPS1014 :: KABQ-KONT

FLIGHT INFORMATION

Flight Status: Arrived
Operator:
United Parcel Service
More flights by this operator :: More flights under this callsign
Pilot: Jim M. (18055)
Aircraft: BOEING 767-300
(B763)
More flights by this aircraft type
Origin: KABQ Albuquerque Intl Sunport
United States
Destination: KONT Ontario Intl
United States
More flights between these airports :: More routes between these airports
Route: RDRNR3 ZUN J78 DRK DAFNY SCBBY2
File this flight plan on PilotEdge
Remarks:
Altitude:
(Current/Filed)
36,000ft
Speed:
(Current/Filed)
475kts
Departed: 25-Jun-19 01:16 PM
Arrived: 25-Jun-19 02:45 PM
Distance/Time
Traveled:
545nm/1:29
Distance/Time
To Go:
Arrived

Flight Plot

Page will automatically refresh every two minutes.

Flight plan parsing failed; only flown route is shown


Map Options




Map Legend


Flown Route
Filed Route
Departure Airport
Arrival Airport
Navaid (VOR, NDB)
Fix

Horizontal Profiles

Position Reports

Time Latitude Longitude Heading Altitude Ground
Speed
25-Jun-19 12:45 35.030337 -106.625011 315 5315ft 0kts
25-Jun-19 12:46 35.030337 -106.625011 315 5315ft 0kts
25-Jun-19 12:47 35.030337 -106.625011 315 5315ft 0kts
25-Jun-19 12:48 35.030337 -106.625011 315 5315ft 0kts
25-Jun-19 12:49 35.030337 -106.625011 315 5315ft 0kts
25-Jun-19 12:50 35.030337 -106.625011 315 5315ft 0kts
25-Jun-19 12:51 35.030337 -106.625011 315 5315ft 0kts
25-Jun-19 12:52 35.030337 -106.625011 315 5315ft 0kts
25-Jun-19 12:53 35.030337 -106.625011 315 5315ft 0kts
25-Jun-19 12:54 35.030337 -106.625011 315 5315ft 0kts
25-Jun-19 12:55 35.030337 -106.625011 315 5315ft 0kts
25-Jun-19 12:56 35.030337 -106.625011 315 5315ft 0kts
25-Jun-19 12:57 35.030337 -106.625011 315 5315ft 0kts
25-Jun-19 12:58 35.030337 -106.625011 315 5315ft 0kts
25-Jun-19 12:59 35.030337 -106.625011 315 5315ft 0kts
25-Jun-19 13:00 35.030337 -106.625011 315 5315ft 0kts
25-Jun-19 13:01 35.030337 -106.625011 315 5315ft 0kts
25-Jun-19 13:02 35.030264 -106.624935 340 5316ft 2kts
25-Jun-19 13:03 35.029779 -106.625280 42 5315ft 2kts
25-Jun-19 13:04 35.029371 -106.625761 43 5313ft 0kts
25-Jun-19 13:05 35.029371 -106.625761 43 5313ft 0kts
25-Jun-19 13:06 35.029371 -106.625761 43 5313ft 0kts
25-Jun-19 13:07 35.029371 -106.625761 43 5313ft 0kts
25-Jun-19 13:08 35.029513 -106.625591 44 5314ft 0kts
25-Jun-19 13:09 35.029901 -106.625095 65 5316ft 0kts
25-Jun-19 13:10 35.029703 -106.624273 152 5316ft 5kts
25-Jun-19 13:11 35.028263 -106.625442 225 5315ft 9kts
25-Jun-19 13:12 35.026209 -106.627952 224 5308ft 13kts
25-Jun-19 13:13 35.023659 -106.631055 222 5294ft 3kts
25-Jun-19 13:14 35.023201 -106.631274 185 5293ft 7kts
25-Jun-19 13:15 35.024340 -106.628076 43 5310ft 52kts
25-Jun-19 13:16 35.053211 -106.593450 43 5827ft 207kts
25-Jun-19 13:17 35.091647 -106.614890 272 6451ft 214kts
25-Jun-19 13:18 35.092627 -106.696656 267 6919ft 269kts
25-Jun-19 13:19 35.096285 -106.789857 279 8610ft 285kts
25-Jun-19 13:20 35.110443 -106.886449 271 10458ft 298kts
25-Jun-19 13:21 35.094513 -106.984683 255 12612ft 299kts
25-Jun-19 13:22 35.074291 -107.085949 254 14168ft 325kts
25-Jun-19 13:23 35.050129 -107.205762 255 14970ft 381kts
25-Jun-19 13:24 35.035582 -107.337910 266 17295ft 391kts
25-Jun-19 13:25 35.031235 -107.473397 266 19663ft 397kts
25-Jun-19 13:26 35.026765 -107.610850 266 21949ft 405kts
25-Jun-19 13:27 35.022031 -107.751420 266 24071ft 413kts
25-Jun-19 13:28 35.017076 -107.893749 266 26058ft 420kts
25-Jun-19 13:29 35.011831 -108.039532 266 27924ft 429kts
25-Jun-19 13:30 35.006310 -108.188012 267 29697ft 436kts
25-Jun-19 13:31 35.000510 -108.338985 267 31335ft 443kts
25-Jun-19 13:32 34.994541 -108.489333 267 33203ft 434kts
25-Jun-19 13:33 34.988512 -108.636678 267 34500ft 428kts
25-Jun-19 13:34 34.982410 -108.781272 267 35498ft 424kts
25-Jun-19 13:35 34.976097 -108.926887 267 36181ft 422kts
25-Jun-19 13:36 34.969594 -109.073061 267 36157ft 418kts
25-Jun-19 13:37 34.961845 -109.216612 266 36134ft 415kts
25-Jun-19 13:38 34.952378 -109.359078 265 36132ft 415kts
25-Jun-19 13:39 34.942751 -109.501545 266 36130ft 415kts
25-Jun-19 13:40 34.933022 -109.643140 266 36129ft 415kts
25-Jun-19 13:41 34.923106 -109.784832 265 36156ft 414kts
25-Jun-19 13:42 34.913085 -109.925841 265 36182ft 414kts
25-Jun-19 13:43 34.902882 -110.067109 265 36174ft 413kts
25-Jun-19 13:44 34.892614 -110.206941 265 36160ft 413kts
25-Jun-19 13:45 34.882067 -110.348277 265 36107ft 412kts
25-Jun-19 13:46 34.871364 -110.489597 265 36079ft 412kts
25-Jun-19 13:47 34.860553 -110.629979 265 36076ft 413kts
25-Jun-19 13:48 34.849548 -110.770786 265 36084ft 413kts
25-Jun-19 13:49 34.838394 -110.911439 265 36083ft 413kts
25-Jun-19 13:50 34.827116 -111.051618 264 36082ft 412kts
25-Jun-19 13:51 34.815671 -111.191552 263 36107ft 412kts
25-Jun-19 13:52 34.803966 -111.332746 263 36170ft 412kts
25-Jun-19 13:53 34.792145 -111.473342 263 36146ft 412kts
25-Jun-19 13:54 34.780260 -111.612789 263 36104ft 412kts
25-Jun-19 13:55 34.768128 -111.753338 263 36115ft 413kts
25-Jun-19 13:56 34.755809 -111.894008 263 36112ft 412kts
25-Jun-19 13:57 34.743322 -112.034731 263 36110ft 413kts
25-Jun-19 13:58 34.730704 -112.175096 263 36115ft 411kts
25-Jun-19 13:59 34.717905 -112.315648 263 36132ft 412kts
25-Jun-19 14:00 34.704965 -112.455595 262 36130ft 412kts
25-Jun-19 14:01 34.672553 -112.590269 253 36129ft 412kts
25-Jun-19 14:02 34.636198 -112.724148 252 36140ft 413kts
25-Jun-19 14:03 34.599689 -112.857317 251 36137ft 413kts
25-Jun-19 14:04 34.562817 -112.991055 251 36137ft 415kts
25-Jun-19 14:05 34.525473 -113.125770 251 36132ft 416kts
25-Jun-19 14:06 34.488072 -113.260047 251 36133ft 417kts
25-Jun-19 14:07 34.450520 -113.394238 251 36041ft 417kts
25-Jun-19 14:08 34.412586 -113.529141 251 35867ft 417kts
25-Jun-19 14:09 34.374868 -113.662651 250 35845ft 417kts
25-Jun-19 14:10 34.336777 -113.796827 250 35846ft 417kts
25-Jun-19 14:11 34.298304 -113.931722 250 35845ft 417kts
25-Jun-19 14:12 34.263991 -114.068381 255 35843ft 419kts
25-Jun-19 14:13 34.234601 -114.206660 255 35841ft 418kts
25-Jun-19 14:14 34.205118 -114.344584 255 35841ft 417kts
25-Jun-19 14:15 34.175353 -114.482991 254 35840ft 418kts
25-Jun-19 14:16 34.145657 -114.620248 255 35841ft 418kts
25-Jun-19 14:17 34.115812 -114.757075 254 35857ft 418kts
25-Jun-19 14:18 34.086791 -114.889139 254 34354ft 400kts
25-Jun-19 14:19 34.058128 -115.018891 253 32318ft 401kts
25-Jun-19 14:20 34.028572 -115.151875 253 30322ft 410kts
25-Jun-19 14:21 33.998559 -115.286632 253 28585ft 404kts
25-Jun-19 14:22 33.968749 -115.420805 253 28606ft 410kts
25-Jun-19 14:23 33.938852 -115.554693 253 28586ft 410kts
25-Jun-19 14:24 33.914063 -115.691680 256 27206ft 411kts
25-Jun-19 14:25 33.892335 -115.823110 256 25196ft 400kts
25-Jun-19 14:26 33.870688 -115.952741 256 23260ft 391kts
25-Jun-19 14:27 33.849304 -116.079884 256 21396ft 384kts
25-Jun-19 14:28 33.851280 -116.207719 273 19533ft 382kts
25-Jun-19 14:30 33.864184 -116.333648 274 17746ft 375kts
25-Jun-19 14:31 33.878187 -116.457515 281 15984ft 369kts
25-Jun-19 14:32 33.907309 -116.575362 285 14075ft 366kts
25-Jun-19 14:33 33.937041 -116.693249 285 11774ft 368kts
25-Jun-19 14:34 33.946493 -116.810615 266 10266ft 341kts
25-Jun-19 14:35 33.942958 -116.914741 266 10130ft 285kts
25-Jun-19 14:36 33.956951 -117.007100 290 8617ft 286kts
25-Jun-19 14:37 33.987381 -117.095008 291 7266ft 281kts
25-Jun-19 14:38 34.016577 -117.180228 285 6393ft 256kts
25-Jun-19 14:39 34.034261 -117.260805 283 6019ft 244kts
25-Jun-19 14:40 34.050214 -117.335525 277 5481ft 217kts
25-Jun-19 14:41 34.054365 -117.401633 270 4009ft 173kts
25-Jun-19 14:42 34.054898 -117.457188 269 3039ft 163kts
25-Jun-19 14:43 34.054982 -117.511460 270 2132ft 160kts
25-Jun-19 14:44 34.054993 -117.565146 270 1261ft 158kts
25-Jun-19 14:45 34.054707 -117.603964 189 929ft 6kts
25-Jun-19 14:46 34.054269 -117.603944 160 927ft 0kts
25-Jun-19 14:47 34.053869 -117.600741 89 922ft 20kts
25-Jun-19 14:48 34.053866 -117.594223 90 922ft 18kts
25-Jun-19 14:48 34.053861 -117.587867 91 922ft 23kts
25-Jun-19 14:50 34.052490 -117.581166 98 918ft 13kts
25-Jun-19 14:51 34.050882 -117.581455 271 911ft 0kts
25-Jun-19 14:51 34.050882 -117.581455 271 911ft 0kts
25-Jun-19 14:53 34.050882 -117.581455 271 911ft 0kts

Navigation Log

Ident Type
Flight plan parsing failed, navigation log unavailable